createdAt,value
2022-07-30T00:02:25.627Z,20.64
2022-07-30T00:05:30.535Z,20.73
2022-07-30T00:08:35.242Z,20.73
2022-07-30T00:11:40.179Z,20.70
2022-07-30T00:14:45.488Z,20.59
2022-07-30T00:17:51.078Z,20.59
2022-07-30T00:20:56.640Z,20.62
2022-07-30T00:24:02.606Z,20.47
2022-07-30T00:27:11.402Z,20.39
2022-07-30T00:30:18.934Z,20.44
2022-07-30T00:33:27.508Z,20.54
2022-07-30T00:36:32.753Z,20.61
2022-07-30T00:39:38.133Z,20.44
2022-07-30T00:42:05.677Z,20.51
2022-07-30T00:44:33.430Z,20.64
2022-07-30T00:47:38.719Z,20.67
2022-07-30T00:50:45.254Z,20.74
2022-07-30T00:53:50.916Z,20.73
2022-07-30T00:56:23.115Z,20.76
2022-07-30T00:58:51.041Z,20.67
2022-07-30T01:01:18.675Z,20.73
2022-07-30T01:03:46.260Z,20.71
2022-07-30T01:06:14.287Z,20.74
2022-07-30T01:08:43.364Z,20.54
2022-07-30T01:11:11.720Z,20.59
2022-07-30T01:13:44.249Z,20.70
2022-07-30T01:16:13.055Z,20.56
2022-07-30T01:19:00.929Z,20.29
2022-07-30T01:22:06.223Z,20.34
2022-07-30T01:25:11.277Z,20.43
2022-07-30T01:28:18.460Z,20.50
2022-07-30T01:31:24.927Z,20.35
2022-07-30T01:34:30.377Z,20.29
2022-07-30T01:37:35.605Z,20.43
2022-07-30T01:40:40.793Z,20.61
2022-07-30T01:43:46.150Z,20.60
2022-07-30T01:46:51.462Z,20.55
2022-07-30T01:49:58.887Z,20.56
2022-07-30T01:53:05.596Z,20.38
2022-07-30T01:56:11.431Z,20.43
2022-07-30T01:59:17.821Z,20.25
2022-07-30T02:02:25.455Z,20.21
2022-07-30T02:05:30.596Z,20.35
2022-07-30T02:08:36.411Z,20.35
2022-07-30T02:12:03.319Z,20.39
2022-07-30T02:15:11.417Z,20.36
2022-07-30T02:18:16.537Z,20.20
2022-07-30T02:21:22.403Z,20.14
2022-07-30T02:24:27.761Z,20.12
2022-07-30T02:26:58.625Z,20.24
2022-07-30T02:29:27.434Z,20.11
2022-07-30T02:31:56.617Z,20.13
2022-07-30T02:34:27.811Z,19.95
2022-07-30T02:36:56.053Z,19.72
2022-07-30T02:39:23.848Z,19.81
2022-07-30T02:41:52.514Z,19.79
2022-07-30T02:44:58.088Z,19.82
2022-07-30T02:48:03.311Z,19.72
2022-07-30T02:51:08.337Z,19.70
2022-07-30T02:54:13.728Z,19.64
2022-07-30T02:57:19.312Z,19.63
2022-07-30T03:00:24.825Z,19.58
2022-07-30T03:03:30.421Z,19.61
2022-07-30T03:06:35.504Z,19.57
2022-07-30T03:09:50.994Z,19.53
2022-07-30T03:12:58.149Z,19.48
2022-07-30T03:16:03.520Z,19.52
2022-07-30T03:19:09.940Z,19.31
2022-07-30T03:21:41.420Z,19.28
2022-07-30T03:24:46.642Z,19.30
2022-07-30T03:27:52.146Z,19.23
2022-07-30T03:30:20.837Z,19.14
2022-07-30T03:32:48.796Z,19.06
2022-07-30T03:35:20.338Z,19.03
2022-07-30T03:38:28.463Z,19.03
2022-07-30T03:40:58.235Z,18.99
2022-07-30T03:43:33.062Z,19.08
2022-07-30T03:46:07.707Z,19.03
2022-07-30T03:48:38.806Z,19.00
2022-07-30T03:51:07.632Z,19.07
2022-07-30T03:53:35.658Z,18.97
2022-07-30T03:56:24.581Z,18.80
2022-07-30T03:59:03.080Z,18.63
2022-07-30T04:01:34.036Z,18.75
2022-07-30T04:04:11.592Z,18.58
2022-07-30T04:06:42.877Z,18.64
2022-07-30T04:09:14.671Z,18.72
2022-07-30T04:11:43.240Z,18.67
2022-07-30T04:14:14.659Z,18.75
2022-07-30T04:16:52.277Z,18.59
2022-07-30T04:19:31.262Z,18.82
2022-07-30T04:22:01.074Z,18.58
2022-07-30T04:24:30.832Z,18.61
2022-07-30T04:27:03.923Z,18.64
2022-07-30T04:29:32.486Z,18.61
2022-07-30T04:32:00.872Z,18.79
2022-07-30T04:34:37.045Z,18.92
2022-07-30T04:37:07.926Z,18.80
2022-07-30T04:39:35.905Z,18.83
2022-07-30T04:42:03.528Z,18.84
2022-07-30T04:44:38.595Z,18.93
2022-07-30T04:47:23.972Z,18.94
2022-07-30T04:50:10.362Z,19.02
2022-07-30T04:52:38.519Z,19.03
2022-07-30T04:55:09.977Z,19.15
2022-07-30T04:57:40.388Z,19.13
2022-07-30T05:00:09.873Z,19.24
2022-07-30T05:02:41.225Z,19.31
2022-07-30T05:05:09.353Z,19.25
2022-07-30T05:07:38.142Z,19.21
2022-07-30T05:10:09.681Z,19.29
2022-07-30T05:12:37.656Z,19.29
2022-07-30T05:15:07.230Z,19.39
2022-07-30T05:17:35.159Z,19.39
2022-07-30T05:20:06.295Z,19.41
2022-07-30T05:22:51.173Z,19.47
2022-07-30T05:25:20.498Z,19.54
2022-07-30T05:27:51.302Z,19.55
2022-07-30T05:30:18.778Z,19.61
2022-07-30T05:32:51.041Z,19.73
2022-07-30T05:35:18.811Z,19.74
2022-07-30T05:37:52.163Z,19.84
2022-07-30T05:40:20.757Z,19.94
2022-07-30T05:43:08.686Z,19.91
2022-07-30T05:45:36.497Z,19.80
2022-07-30T05:48:04.492Z,20.11
2022-07-30T05:50:32.029Z,20.27
2022-07-30T05:52:59.528Z,20.05
2022-07-30T05:55:58.940Z,20.35
2022-07-30T05:58:52.692Z,20.44
2022-07-30T06:01:34.008Z,20.47
2022-07-30T06:04:09.402Z,20.61
2022-07-30T06:06:43.438Z,20.27
2022-07-30T06:09:11.547Z,20.26
2022-07-30T06:11:39.103Z,20.61
2022-07-30T06:14:06.984Z,20.79
2022-07-30T06:16:34.635Z,20.86
2022-07-30T06:19:02.394Z,20.99
2022-07-30T06:22:05.302Z,21.09
2022-07-30T06:24:34.846Z,21.27
2022-07-30T06:27:12.002Z,21.28
2022-07-30T06:29:40.601Z,21.37
2022-07-30T06:32:09.678Z,21.54
2022-07-30T06:34:37.140Z,21.63
2022-07-30T06:37:04.850Z,21.52
2022-07-30T06:39:57.701Z,21.83
2022-07-30T06:42:41.624Z,21.68
2022-07-30T06:45:27.912Z,22.03
2022-07-30T06:48:14.331Z,22.23
2022-07-30T06:50:43.338Z,22.39
2022-07-30T06:53:11.448Z,22.48
2022-07-30T06:55:58.575Z,22.40
2022-07-30T06:58:33.438Z,22.73
2022-07-30T07:01:23.420Z,22.93
2022-07-30T07:03:51.288Z,23.04
2022-07-30T07:06:19.496Z,23.18
2022-07-30T07:08:47.093Z,23.08
2022-07-30T07:11:18.846Z,23.31
2022-07-30T07:13:53.910Z,23.62
2022-07-30T07:16:34.373Z,23.67
2022-07-30T07:19:59.727Z,23.75
2022-07-30T07:22:07.824Z,23.53
2022-07-30T07:24:40.182Z,23.73
2022-07-30T07:27:17.896Z,23.57
2022-07-30T07:30:01.347Z,23.36
2022-07-30T07:32:35.522Z,23.66
2022-07-30T07:35:06.517Z,24.07
2022-07-30T07:37:36.405Z,24.31
2022-07-30T07:40:08.596Z,24.61
2022-07-30T07:42:41.363Z,24.49
2022-07-30T07:45:09.372Z,24.69
2022-07-30T07:47:49.245Z,25.01
2022-07-30T07:50:43.571Z,24.93
2022-07-30T07:53:21.242Z,25.02
2022-07-30T07:55:48.853Z,24.53
2022-07-30T07:58:20.094Z,24.81
2022-07-30T08:00:54.070Z,25.15
2022-07-30T08:03:25.369Z,25.26
2022-07-30T08:06:05.688Z,25.54
2022-07-30T08:09:08.885Z,25.72
2022-07-30T08:11:58.960Z,25.88
2022-07-30T08:14:53.972Z,25.94
2022-07-30T08:17:46.777Z,26.14
2022-07-30T08:20:19.080Z,26.30
2022-07-30T08:22:46.869Z,26.43
2022-07-30T08:25:22.193Z,26.49
2022-07-30T08:27:53.257Z,26.54
2022-07-30T08:30:21.064Z,26.62
2022-07-30T08:32:48.785Z,26.81
2022-07-30T08:35:16.362Z,26.98
2022-07-30T08:37:43.977Z,27.25
2022-07-30T08:40:12.072Z,27.13
2022-07-30T08:42:54.281Z,27.19
2022-07-30T08:45:34.964Z,27.49
2022-07-30T08:48:17.659Z,27.40
2022-07-30T08:50:46.614Z,27.54
2022-07-30T08:53:34.049Z,27.76
2022-07-30T08:56:02.637Z,27.75
2022-07-30T08:58:36.383Z,27.84
2022-07-30T09:01:05.597Z,27.98
2022-07-30T09:03:36.740Z,28.07
2022-07-30T09:06:12.251Z,28.17
2022-07-30T09:08:39.935Z,28.27
2022-07-30T09:11:07.552Z,28.44
2022-07-30T09:13:37.750Z,28.29
2022-07-30T09:16:06.287Z,28.42
2022-07-30T09:18:39.689Z,28.40
2022-07-30T09:21:22.179Z,28.46
2022-07-30T09:24:02.110Z,28.61
2022-07-30T09:27:00.376Z,28.40
2022-07-30T09:29:44.234Z,28.60
2022-07-30T09:32:52.167Z,28.80
2022-07-30T09:35:41.050Z,28.65
2022-07-30T09:38:12.513Z,29.05
2022-07-30T09:41:00.160Z,28.90
2022-07-30T09:43:51.207Z,28.84
2022-07-30T09:46:48.105Z,28.74
2022-07-30T09:49:41.933Z,29.07
2022-07-30T09:52:29.045Z,28.36
2022-07-30T09:54:57.005Z,28.94
2022-07-30T09:57:28.822Z,29.39
2022-07-30T10:00:23.819Z,29.53
2022-07-30T10:03:21.910Z,29.85
2022-07-30T10:06:35.184Z,29.74
2022-07-30T10:09:24.848Z,29.74
2022-07-30T10:11:56.699Z,29.87
2022-07-30T10:14:42.652Z,29.57
2022-07-30T10:17:13.308Z,29.69
2022-07-30T10:19:44.779Z,29.87
2022-07-30T10:22:36.172Z,29.03
2022-07-30T10:25:28.009Z,29.06
2022-07-30T10:28:35.822Z,29.43
2022-07-30T10:31:48.104Z,29.44
2022-07-30T10:33:59.449Z,29.84
2022-07-30T10:36:28.121Z,30.24
2022-07-30T10:38:56.336Z,30.15
2022-07-30T10:41:53.909Z,30.02
2022-07-30T10:44:39.090Z,29.23
2022-07-30T10:47:10.966Z,29.71
2022-07-30T10:49:41.177Z,27.93
2022-07-30T10:52:11.044Z,28.66
2022-07-30T10:54:41.996Z,29.09
2022-07-30T10:57:31.603Z,29.42
2022-07-30T10:59:59.939Z,28.54
2022-07-30T11:02:35.768Z,28.82
2022-07-30T11:05:43.871Z,29.35
2022-07-30T11:08:36.347Z,29.87
2022-07-30T11:11:20.593Z,29.54
2022-07-30T11:13:51.938Z,30.03
2022-07-30T11:16:23.182Z,29.62
2022-07-30T11:19:51.550Z,29.94
2022-07-30T11:22:38.365Z,30.73
2022-07-30T11:25:12.675Z,30.31
2022-07-30T11:27:45.765Z,30.67
2022-07-30T11:30:17.678Z,30.81
2022-07-30T11:32:51.381Z,31.26
2022-07-30T11:35:23.072Z,31.18
2022-07-30T11:38:15.687Z,31.34
2022-07-30T11:40:49.375Z,31.55
2022-07-30T11:43:34.833Z,31.65
2022-07-30T11:46:07.006Z,32.18
2022-07-30T11:48:44.088Z,32.62
2022-07-30T11:51:11.919Z,32.84
2022-07-30T11:53:39.472Z,33.27
2022-07-30T11:56:07.055Z,33.02
2022-07-30T11:58:40.013Z,32.98
2022-07-30T12:01:15.390Z,33.69
2022-07-30T12:03:44.617Z,34.13
2022-07-30T12:06:18.140Z,34.44
2022-07-30T12:08:49.619Z,34.12
2022-07-30T12:11:17.621Z,35.31
2022-07-30T12:13:56.149Z,35.70
2022-07-30T12:16:23.720Z,35.63
2022-07-30T12:18:51.365Z,34.38
2022-07-30T12:21:19.310Z,34.87
2022-07-30T12:24:00.963Z,35.14
2022-07-30T12:26:34.796Z,37.38
2022-07-30T12:29:10.079Z,39.23
2022-07-30T12:31:40.229Z,40.23
2022-07-30T12:34:25.176Z,39.21
2022-07-30T12:36:56.840Z,37.25
2022-07-30T12:39:26.086Z,36.80
2022-07-30T12:41:57.890Z,35.57
2022-07-30T12:44:34.669Z,34.90
2022-07-30T12:47:04.690Z,35.13
2022-07-30T12:49:36.583Z,36.87
2022-07-30T12:52:13.243Z,38.11
2022-07-30T12:54:57.254Z,37.58
2022-07-30T12:57:24.782Z,37.16
2022-07-30T13:00:08.748Z,37.29
2022-07-30T13:02:36.637Z,37.35
2022-07-30T13:05:11.577Z,39.62
2022-07-30T13:07:56.742Z,40.63
2022-07-30T13:10:30.790Z,40.24
2022-07-30T13:12:59.798Z,41.08
2022-07-30T13:15:27.476Z,42.81
2022-07-30T13:17:55.089Z,43.23
2022-07-30T13:20:23.065Z,42.30
2022-07-30T13:22:50.704Z,43.17
2022-07-30T13:25:20.012Z,43.12
2022-07-30T13:27:48.346Z,42.84
2022-07-30T13:30:16.092Z,43.64
2022-07-30T13:32:45.120Z,44.01
2022-07-30T13:35:12.820Z,44.00
2022-07-30T13:37:40.341Z,42.51
2022-07-30T13:40:08.436Z,41.67
2022-07-30T13:42:35.926Z,41.80
2022-07-30T13:45:04.851Z,42.78
2022-07-30T13:47:32.365Z,41.48
2022-07-30T13:49:59.857Z,40.45
2022-07-30T13:52:27.377Z,40.25
2022-07-30T13:54:54.886Z,40.05
2022-07-30T13:57:22.421Z,38.82
2022-07-30T13:59:49.991Z,38.42
2022-07-30T14:02:17.571Z,37.85
2022-07-30T14:04:45.092Z,37.47
2022-07-30T14:07:12.571Z,38.39
2022-07-30T14:09:45.000Z,37.10
2022-07-30T14:12:15.542Z,37.77
2022-07-30T14:14:43.385Z,36.12
2022-07-30T14:17:10.868Z,35.79
2022-07-30T14:19:38.325Z,37.63
2022-07-30T14:22:05.998Z,39.52
2022-07-30T14:24:36.624Z,40.85
2022-07-30T14:27:04.519Z,41.81
2022-07-30T14:29:34.402Z,43.17
2022-07-30T14:32:02.140Z,44.44
2022-07-30T14:34:29.697Z,43.33
2022-07-30T14:36:57.198Z,42.95
2022-07-30T14:39:27.926Z,43.42
2022-07-30T14:41:56.467Z,43.06
2022-07-30T14:44:24.389Z,42.93
2022-07-30T14:46:53.023Z,42.00
2022-07-30T14:49:22.759Z,42.35
2022-07-30T14:51:52.108Z,41.07
2022-07-30T14:54:19.866Z,39.98
2022-07-30T14:56:47.534Z,39.25
2022-07-30T14:59:15.279Z,37.70
2022-07-30T15:01:43.928Z,36.57
2022-07-30T15:04:17.314Z,37.29
2022-07-30T15:06:44.824Z,38.94
2022-07-30T15:09:13.084Z,40.71
2022-07-30T15:12:08.026Z,40.52
2022-07-30T15:14:29.444Z,41.06
2022-07-30T15:17:04.245Z,40.99
2022-07-30T15:19:35.209Z,41.33
2022-07-30T15:22:06.520Z,41.53
2022-07-30T15:24:34.651Z,42.67
2022-07-30T15:27:02.315Z,43.31
2022-07-30T15:29:32.689Z,43.60
2022-07-30T15:32:01.387Z,43.88
2022-07-30T15:34:34.266Z,43.56
2022-07-30T15:37:03.260Z,42.90
2022-07-30T15:40:08.879Z,43.43
2022-07-30T15:43:14.069Z,44.34
2022-07-30T15:45:55.338Z,43.98
2022-07-30T15:48:27.372Z,43.13
2022-07-30T15:51:02.767Z,42.38
2022-07-30T15:53:31.298Z,43.41
2022-07-30T15:55:59.492Z,44.44
2022-07-30T15:59:04.735Z,43.26
2022-07-30T16:01:34.887Z,45.19
2022-07-30T16:04:41.966Z,45.82
2022-07-30T16:07:53.118Z,46.29
2022-07-30T16:10:20.762Z,46.52
2022-07-30T16:12:48.278Z,43.19
2022-07-30T16:15:53.580Z,41.24
2022-07-30T16:19:01.805Z,38.58
2022-07-30T16:22:09.611Z,36.86
2022-07-30T16:25:14.820Z,36.44
2022-07-30T16:28:20.047Z,36.22
2022-07-30T16:30:50.539Z,35.71
2022-07-30T16:33:20.408Z,35.82
2022-07-30T16:35:48.990Z,35.83
2022-07-30T16:38:23.151Z,35.70
2022-07-30T16:40:50.910Z,35.35
2022-07-30T16:43:24.595Z,35.37
2022-07-30T16:45:52.229Z,35.49
2022-07-30T16:48:19.740Z,35.45
2022-07-30T16:50:52.056Z,35.37
2022-07-30T16:53:19.584Z,35.12
2022-07-30T16:55:47.560Z,35.01
2022-07-30T16:58:18.365Z,34.11
2022-07-30T17:00:48.909Z,33.92
2022-07-30T17:03:20.029Z,33.50
2022-07-30T17:05:48.094Z,33.47
2022-07-30T17:08:18.663Z,33.30
2022-07-30T17:10:53.218Z,33.56
2022-07-30T17:13:23.992Z,33.39
2022-07-30T17:15:51.499Z,32.78
2022-07-30T17:18:19.097Z,32.14
2022-07-30T17:20:46.561Z,32.09
2022-07-30T17:23:14.136Z,32.06
2022-07-30T17:25:43.895Z,31.87
2022-07-30T17:28:11.512Z,32.06
2022-07-30T17:30:39.675Z,31.97
2022-07-30T17:33:07.295Z,31.86
2022-07-30T17:35:34.977Z,31.95
2022-07-30T17:38:03.693Z,31.71
2022-07-30T17:40:36.177Z,31.72
2022-07-30T17:43:04.698Z,31.66
2022-07-30T17:45:36.512Z,31.76
2022-07-30T17:48:05.228Z,31.68
2022-07-30T17:50:33.667Z,31.32
2022-07-30T17:53:03.569Z,31.04
2022-07-30T17:55:35.394Z,31.11
2022-07-30T17:58:04.263Z,30.92
2022-07-30T18:00:32.498Z,30.71
2022-07-30T18:03:03.456Z,30.56
2022-07-30T18:05:31.140Z,30.71
2022-07-30T18:07:58.657Z,30.52
2022-07-30T18:10:26.275Z,30.42
2022-07-30T18:12:56.558Z,30.40
2022-07-30T18:15:24.869Z,30.35
2022-07-30T18:17:52.349Z,30.29
2022-07-30T18:20:19.894Z,30.27
2022-07-30T18:22:51.472Z,30.37
2022-07-30T18:25:23.245Z,30.26
2022-07-30T18:27:51.478Z,30.19
2022-07-30T18:30:19.191Z,29.88
2022-07-30T18:32:46.730Z,29.92
2022-07-30T18:35:15.284Z,29.89
2022-07-30T18:37:44.024Z,29.76
2022-07-30T18:40:20.623Z,29.58
2022-07-30T18:42:51.469Z,29.58
2022-07-30T18:45:19.467Z,29.45
2022-07-30T18:47:48.706Z,29.18
2022-07-30T18:50:16.597Z,28.72
2022-07-30T18:52:44.827Z,28.57
2022-07-30T18:55:12.722Z,28.62
2022-07-30T18:57:41.236Z,28.57
2022-07-30T19:00:34.648Z,28.58
2022-07-30T19:03:00.562Z,28.34
2022-07-30T19:05:28.383Z,28.09
2022-07-30T19:07:59.206Z,27.74
2022-07-30T19:10:27.488Z,27.82
2022-07-30T19:12:55.610Z,27.82
2022-07-30T19:15:23.396Z,27.72
2022-07-30T19:17:51.678Z,27.40
2022-07-30T19:20:19.906Z,27.33
2022-07-30T19:22:47.565Z,27.30
2022-07-30T19:25:15.571Z,27.21
2022-07-30T19:27:45.909Z,27.13
2022-07-30T19:30:16.321Z,27.03
2022-07-30T19:32:45.826Z,26.81
2022-07-30T19:35:14.677Z,26.65
2022-07-30T19:37:42.374Z,26.67
2022-07-30T19:40:10.938Z,26.59
2022-07-30T19:42:41.209Z,26.55
2022-07-30T19:45:12.129Z,26.36
2022-07-30T19:47:42.558Z,26.11
2022-07-30T19:50:11.241Z,26.08
2022-07-30T19:52:50.960Z,26.14
2022-07-30T19:55:35.188Z,25.61
2022-07-30T19:58:05.084Z,25.65
2022-07-30T20:00:49.781Z,25.75
2022-07-30T20:03:25.329Z,25.53
2022-07-30T20:06:07.890Z,25.51
2022-07-30T20:08:36.759Z,25.46
2022-07-30T20:11:07.339Z,25.36
2022-07-30T20:13:45.139Z,25.33
2022-07-30T20:16:23.388Z,25.47
2022-07-30T20:18:52.863Z,25.31
2022-07-30T20:21:20.463Z,25.22
2022-07-30T20:23:48.014Z,25.24
2022-07-30T20:26:20.555Z,25.03
2022-07-30T20:28:52.355Z,25.12
2022-07-30T20:31:21.226Z,25.07
2022-07-30T20:33:50.105Z,24.90
2022-07-30T20:36:19.041Z,24.90
2022-07-30T20:38:47.107Z,24.80
2022-07-30T20:41:15.568Z,24.76
2022-07-30T20:43:51.805Z,24.66
2022-07-30T20:46:23.869Z,24.38
2022-07-30T20:48:52.229Z,24.34
2022-07-30T20:51:26.893Z,23.95
2022-07-30T20:54:02.090Z,24.02
2022-07-30T20:56:30.048Z,23.93
2022-07-30T20:58:57.538Z,23.91
2022-07-30T21:01:25.381Z,23.88
2022-07-30T21:03:53.756Z,23.90
2022-07-30T21:06:24.463Z,23.96
2022-07-30T21:08:56.173Z,23.94
2022-07-30T21:11:25.142Z,23.88
2022-07-30T21:13:53.925Z,23.49
2022-07-30T21:16:23.662Z,23.59
2022-07-30T21:18:51.170Z,23.57
2022-07-30T21:21:29.096Z,23.57
2022-07-30T21:24:11.571Z,23.44
2022-07-30T21:26:42.337Z,23.36
2022-07-30T21:29:10.367Z,23.26
2022-07-30T21:32:00.458Z,23.09
2022-07-30T21:34:28.084Z,23.16
2022-07-30T21:36:57.456Z,23.06
2022-07-30T21:39:28.916Z,22.94
2022-07-30T21:41:57.340Z,23.07
2022-07-30T21:44:25.286Z,23.09
2022-07-30T21:46:53.745Z,23.04
2022-07-30T21:49:23.228Z,23.12
2022-07-30T21:51:50.977Z,23.16
2022-07-30T21:54:28.422Z,23.16
2022-07-30T21:56:58.200Z,23.16
2022-07-30T21:59:27.872Z,23.17
2022-07-30T22:01:56.143Z,23.11
2022-07-30T22:04:24.200Z,23.13
2022-07-30T22:06:54.966Z,23.03
2022-07-30T22:09:34.513Z,23.11
2022-07-30T22:14:52.062Z,23.18
2022-07-30T22:17:23.303Z,23.16
2022-07-30T22:20:08.506Z,23.12
2022-07-30T22:22:37.747Z,22.98
2022-07-30T22:25:06.727Z,22.98
2022-07-30T22:27:40.155Z,22.88
2022-07-30T22:30:26.752Z,22.85
2022-07-30T22:32:55.583Z,22.80
2022-07-30T22:35:32.463Z,22.80
2022-07-30T22:38:06.233Z,22.84
2022-07-30T22:40:35.230Z,22.57
2022-07-30T22:43:12.464Z,22.32
2022-07-30T22:45:48.846Z,22.43
2022-07-30T22:48:19.162Z,22.36
2022-07-30T22:50:51.727Z,22.17
2022-07-30T22:54:02.817Z,22.38
2022-07-30T22:56:14.089Z,22.38
2022-07-30T22:58:43.479Z,22.52
2022-07-30T23:01:11.472Z,22.52
2022-07-30T23:03:39.585Z,22.41
2022-07-30T23:06:14.671Z,22.18
2022-07-30T23:08:44.038Z,22.07
2022-07-30T23:11:11.580Z,22.14
2022-07-30T23:12:31.148Z,23.12
2022-07-30T23:13:40.188Z,22.06
2022-07-30T23:16:07.753Z,21.94
2022-07-30T23:18:35.367Z,21.84
2022-07-30T23:21:04.625Z,21.96
2022-07-30T23:23:34.237Z,22.07
2022-07-30T23:26:03.652Z,22.03
2022-07-30T23:28:31.181Z,22.04
2022-07-30T23:30:59.133Z,21.67
2022-07-30T23:33:27.304Z,21.64
2022-07-30T23:35:54.980Z,21.85
2022-07-30T23:38:25.612Z,21.84
2022-07-30T23:40:53.703Z,21.88
2022-07-30T23:43:22.626Z,21.87
2022-07-30T23:45:50.137Z,21.88
2022-07-30T23:48:20.507Z,21.74
2022-07-30T23:50:48.638Z,21.79
2022-07-30T23:53:21.507Z,21.71
2022-07-30T23:55:50.343Z,21.56
2022-07-30T23:58:18.197Z,21.32
